Time;durP1;ratioP1;P1;durP2;ratioP2;P2;SDS_P1;SDS_P2;PMS_P1;PMS_P2;Temp;Humidity;BMP_temperature;BMP_pressure;BME280_temperature;BME280_humidity;BME280_pressure;Samples;Min_cycle;Max_cycle;Signal;HPM_P1;HPM_P2
2021/01/02 00:03:38;;;;;;;12.93;6.95;;;;;;;;;;10459043;27;20489;-62
2021/01/02 00:08:37;;;;;;;8.40;6.45;;;;;;;;;;10459281;27;20038;-62
2021/01/02 00:13:53;;;;;;;6.60;5.53;;;;;;;;;;10460020;27;20070;-62
2021/01/02 00:18:50;;;;;;;;;;;;;;;;;;10458268;27;20043;-62
2021/01/02 00:24:14;;;;;;;7.45;5.47;;;;;;;;;;10461396;27;19954;-62
2021/01/02 00:29:16;;;;;;;8.60;5.78;;;;;;;;;;10462024;27;20082;-62
2021/01/02 00:34:32;;;;;;;6.88;6.18;;;;;;;;;;10467679;27;20463;-61
2021/01/02 00:39:35;;;;;;;11.48;9.32;;;;;;;;;;10465348;27;20054;-61
2021/01/02 00:44:34;;;;;;;9.93;5.72;;;;;;;;;;10468965;27;20074;-61
2021/01/02 00:49:33;;;;;;;8.40;6.47;;;;;;;;;;10466076;27;20526;-62
2021/01/02 00:54:37;;;;;;;10.07;6.57;;;;;;;;;;10467578;27;20077;-62
2021/01/02 00:59:49;;;;;;;7.10;5.82;;;;;;;;;;10465820;27;20071;-63
2021/01/02 01:05:08;;;;;;;8.63;6.55;;;;;;;;;;10442962;27;20083;-62
2021/01/02 01:10:07;;;;;;;9.00;6.70;;;;;;;;;;10461799;27;20034;-62
2021/01/02 01:15:07;;;;;;;10.45;7.60;;;;;;;;;;10463211;27;20071;-63
2021/01/02 01:20:06;;;;;;;9.35;6.70;;;;;;;;;;10463307;27;20070;-62
2021/01/02 01:25:04;;;;;;;9.68;7.28;;;;;;;;;;10462479;27;20066;-62
2021/01/02 01:30:02;;;;;;;10.25;6.53;;;;;;;;;;10466061;27;20070;-62
2021/01/02 01:35:03;;;;;;;8.77;6.55;;;;;;;;;;10465164;27;20393;-61
2021/01/02 01:40:00;;;;;;;6.10;5.50;;;;;;;;;;10465657;27;20039;-62
2021/01/02 01:45:12;;;;;;;6.63;5.35;;;;;;;;;;10486002;27;20074;-63
2021/01/02 01:50:25;;;;;;;24.52;15.43;;;;;;;;;;10485241;27;20039;-62
2021/01/02 01:55:28;;;;;;;29.38;20.33;;;;;;;;;;10487152;27;20248;-63
2021/01/02 02:00:42;;;;;;;70.68;42.08;;;;;;;;;;10483391;27;20074;-63
2021/01/02 02:05:51;;;;;;;44.08;28.60;;;;;;;;;;10483970;27;20439;-63
2021/01/02 02:11:02;;;;;;;28.17;20.25;;;;;;;;;;10483612;27;20030;-62
2021/01/02 02:16:00;;;;;;;25.38;19.50;;;;;;;;;;10484978;27;20067;-63
2021/01/02 02:20:58;;;;;;;26.05;19.67;;;;;;;;;;10485976;27;20050;-62
2021/01/02 02:26:06;;;;;;;24.45;17.88;;;;;;;;;;10485625;27;20070;-62
2021/01/02 02:31:04;;;;;;;39.13;26.95;;;;;;;;;;10482889;27;20055;-63
2021/01/02 02:36:03;;;;;;;30.88;22.15;;;;;;;;;;10484742;27;20061;-62
2021/01/02 02:41:00;;;;;;;37.65;25.75;;;;;;;;;;10482744;27;20073;-61
2021/01/02 02:46:00;;;;;;;123.97;75.20;;;;;;;;;;10483594;27;20070;-61
2021/01/02 02:50:58;;;;;;;30.55;22.33;;;;;;;;;;10482487;27;20089;-61
2021/01/02 02:55:56;;;;;;;30.67;21.40;;;;;;;;;;10483470;27;20039;-61
2021/01/02 03:00:55;;;;;;;43.15;30.80;;;;;;;;;;10483314;27;20069;-62
2021/01/02 03:05:54;;;;;;;40.85;27.05;;;;;;;;;;10483989;27;20076;-61
2021/01/02 03:10:51;;;;;;;44.65;27.17;;;;;;;;;;10482475;27;20042;-61
2021/01/02 03:15:49;;;;;;;38.75;26.88;;;;;;;;;;10482448;27;20062;-61
2021/01/02 03:20:46;;;;;;;34.85;22.08;;;;;;;;;;10483134;27;20062;-61
2021/01/02 03:25:44;;;;;;;39.58;24.85;;;;;;;;;;10479020;27;20069;-61
2021/01/02 03:30:41;;;;;;;83.22;50.75;;;;;;;;;;10482196;27;20459;-62
2021/01/02 03:35:39;;;;;;;64.28;40.70;;;;;;;;;;10482175;27;20446;-62
2021/01/02 03:40:36;;;;;;;93.65;55.08;;;;;;;;;;10482406;27;20078;-62
2021/01/02 03:45:34;;;;;;;61.13;39.50;;;;;;;;;;10481591;27;20062;-62
2021/01/02 03:50:31;;;;;;;48.45;30.25;;;;;;;;;;10481398;27;20151;-62
2021/01/02 03:55:29;;;;;;;44.75;30.85;;;;;;;;;;10482338;27;20062;-63
2021/01/02 04:00:26;;;;;;;41.83;27.60;;;;;;;;;;10481440;27;20050;-62
2021/01/02 04:05:24;;;;;;;31.98;24.20;;;;;;;;;;10476418;27;20085;-62
2021/01/02 04:10:21;;;;;;;36.85;24.48;;;;;;;;;;10481864;27;20034;-62
2021/01/02 04:15:19;;;;;;;16.23;11.30;;;;;;;;;;10481005;27;20467;-62
2021/01/02 04:20:16;;;;;;;23.05;15.65;;;;;;;;;;10480812;27;20105;-62
2021/01/02 04:25:14;;;;;;;25.98;18.38;;;;;;;;;;10480262;27;20078;-62
2021/01/02 04:30:12;;;;;;;61.58;49.47;;;;;;;;;;10480418;27;20046;-62
2021/01/02 04:35:10;;;;;;;26.75;20.52;;;;;;;;;;10481083;27;20054;-63
2021/01/02 04:40:08;;;;;;;28.85;22.80;;;;;;;;;;10481117;27;20521;-62
2021/01/02 04:45:09;;;;;;;40.55;24.85;;;;;;;;;;10479197;27;20079;-63
2021/01/02 04:50:08;;;;;;;34.38;25.10;;;;;;;;;;10478629;27;20047;-62
2021/01/02 04:55:07;;;;;;;30.08;21.70;;;;;;;;;;10477770;27;20039;-63
2021/01/02 05:00:06;;;;;;;39.15;24.85;;;;;;;;;;10477828;27;20066;-62
2021/01/02 05:05:05;;;;;;;51.72;37.42;;;;;;;;;;10477165;27;20104;-63
2021/01/02 05:10:03;;;;;;;37.50;26.20;;;;;;;;;;10479661;27;20050;-63
2021/01/02 05:15:05;;;;;;;49.40;29.65;;;;;;;;;;10482484;27;20533;-63
2021/01/02 05:20:10;;;;;;;28.02;18.80;;;;;;;;;;10487707;27;20078;-62
2021/01/02 05:25:09;;;;;;;26.00;18.38;;;;;;;;;;10485018;27;20085;-62
2021/01/02 05:30:16;;;;;;;115.78;64.05;;;;;;;;;;10484841;27;20077;-62
2021/01/02 05:35:19;;;;;;;39.38;25.23;;;;;;;;;;10485276;27;20051;-62
2021/01/02 05:40:31;;;;;;;35.83;22.55;;;;;;;;;;10487491;27;20065;-62
2021/01/02 05:45:29;;;;;;;31.25;20.38;;;;;;;;;;10484844;27;20089;-62
2021/01/02 05:50:28;;;;;;;28.83;20.30;;;;;;;;;;10483819;27;20477;-63
2021/01/02 05:55:29;;;;;;;29.80;19.65;;;;;;;;;;10484450;27;20407;-62
2021/01/02 06:00:26;;;;;;;39.83;27.25;;;;;;;;;;10482009;27;20038;-63
2021/01/02 06:05:23;;;;;;;45.50;31.00;;;;;;;;;;10486852;27;20498;-63
2021/01/02 06:10:22;;;;;;;41.50;28.58;;;;;;;;;;10485130;27;20077;-62
2021/01/02 06:15:19;;;;;;;65.68;40.05;;;;;;;;;;10485064;27;20046;-62
2021/01/02 06:20:17;;;;;;;52.70;32.83;;;;;;;;;;10484667;27;20054;-62
2021/01/02 06:25:15;;;;;;;34.08;21.58;;;;;;;;;;10485120;27;20074;-62
2021/01/02 06:30:16;;;;;;;32.72;21.98;;;;;;;;;;10484809;27;20039;-63
2021/01/02 06:35:17;;;;;;;36.78;20.70;;;;;;;;;;10484207;27;20128;-63
2021/01/02 06:40:21;;;;;;;41.83;25.15;;;;;;;;;;10484729;27;20038;-63
2021/01/02 06:45:42;;;;;;;31.52;18.23;;;;;;;;;;10482896;27;20168;-61
2021/01/02 06:50:39;;;;;;;19.13;13.77;;;;;;;;;;10483186;27;20043;-62
2021/01/02 06:55:37;;;;;;;20.42;14.57;;;;;;;;;;10484377;27;20062;-61
2021/01/02 07:00:36;;;;;;;15.02;10.10;;;;;;;;;;10483353;27;20070;-62
2021/01/02 07:05:43;;;;;;;14.70;9.98;;;;;;;;;;10483790;27;20047;-61
2021/01/02 07:10:40;;;;;;;40.50;25.63;;;;;;;;;;10482653;27;20066;-61
2021/01/02 07:15:38;;;;;;;35.58;25.52;;;;;;;;;;10483646;27;20074;-62
2021/01/02 07:20:36;;;;;;;38.50;24.52;;;;;;;;;;10483401;27;20038;-62
2021/01/02 07:25:33;;;;;;;34.90;17.58;;;;;;;;;;10482530;27;20057;-62
2021/01/02 07:30:31;;;;;;;36.72;18.98;;;;;;;;;;10481950;27;20514;-62
2021/01/02 07:35:29;;;;;;;38.83;21.90;;;;;;;;;;10482706;27;20462;-62
2021/01/02 07:40:26;;;;;;;19.50;14.05;;;;;;;;;;10482322;27;20050;-62
2021/01/02 07:45:25;;;;;;;15.55;11.20;;;;;;;;;;10479717;27;20077;-62
2021/01/02 07:50:23;;;;;;;25.00;16.05;;;;;;;;;;10482485;27;20034;-62
2021/01/02 07:55:22;;;;;;;24.42;19.45;;;;;;;;;;10463562;27;20070;-62
2021/01/02 08:00:20;;;;;;;20.55;15.07;;;;;;;;;;10482386;27;20499;-62
2021/01/02 08:05:19;;;;;;;22.45;14.93;;;;;;;;;;10481299;27;20579;-62
2021/01/02 08:10:17;;;;;;;31.90;21.65;;;;;;;;;;10481051;27;20089;-62
2021/01/02 08:15:18;;;;;;;36.97;24.10;;;;;;;;;;10481012;27;20070;-62
2021/01/02 08:20:15;;;;;;;47.65;26.70;;;;;;;;;;10480667;27;20039;-63
2021/01/02 08:25:15;;;;;;;83.72;39.15;;;;;;;;;;10480480;27;20101;-62
2021/01/02 08:30:13;;;;;;;51.60;28.65;;;;;;;;;;10480768;27;20464;-62
2021/01/02 08:35:18;;;;;;;50.63;26.48;;;;;;;;;;10480116;27;20082;-60
2021/01/02 08:40:16;;;;;;;63.50;41.13;;;;;;;;;;10480807;27;20046;-61
2021/01/02 08:45:14;;;;;;;36.40;21.95;;;;;;;;;;10481231;27;20074;-61
2021/01/02 08:50:12;;;;;;;48.40;27.50;;;;;;;;;;10484531;27;20046;-61
2021/01/02 08:55:12;;;;;;;59.03;33.22;;;;;;;;;;10489084;27;20156;-61
2021/01/02 09:00:11;;;;;;;26.63;14.98;;;;;;;;;;10488667;27;20050;-61
2021/01/02 09:05:09;;;;;;;27.52;15.45;;;;;;;;;;10489125;27;20043;-61
2021/01/02 09:10:17;;;;;;;30.67;18.98;;;;;;;;;;10488365;27;20073;-62
2021/01/02 09:15:14;;;;;;;25.27;16.98;;;;;;;;;;10487173;27;20147;-60
2021/01/02 09:20:16;;;;;;;30.35;16.58;;;;;;;;;;10478803;27;20071;-60
2021/01/02 09:25:13;;;;;;;30.27;18.60;;;;;;;;;;10470287;27;20097;-61
2021/01/02 09:30:12;;;;;;;35.30;19.40;;;;;;;;;;10467080;27;20042;-60
2021/01/02 09:35:10;;;;;;;30.90;19.15;;;;;;;;;;10471160;27;20085;-60
2021/01/02 09:40:12;;;;;;;46.58;27.80;;;;;;;;;;10474583;27;20090;-60
2021/01/02 09:45:10;;;;;;;35.95;22.95;;;;;;;;;;10487160;27;20050;-60
2021/01/02 09:50:08;;;;;;;54.08;34.05;;;;;;;;;;10485612;27;20090;-62
2021/01/02 09:55:06;;;;;;;42.38;32.38;;;;;;;;;;10486388;27;20070;-61
2021/01/02 10:00:06;;;;;;;42.47;26.50;;;;;;;;;;10483859;27;20059;-61
2021/01/02 10:05:08;;;;;;;;;;;;;;;;;;10489436;27;20069;-60
2021/01/02 10:10:06;;;;;;;59.63;42.55;;;;;;;;;;10486155;27;19958;-61
2021/01/02 10:15:05;;;;;;;34.33;25.42;;;;;;;;;;10482580;27;20081;-60
2021/01/02 10:20:03;;;;;;;37.13;24.13;;;;;;;;;;10485168;27;20042;-60
2021/01/02 10:25:01;;;;;;;34.10;22.17;;;;;;;;;;10466199;27;20514;-61
2021/01/02 10:29:58;;;;;;;127.20;65.43;;;;;;;;;;10483438;27;20081;-60
2021/01/02 10:34:56;;;;;;;73.43;46.70;;;;;;;;;;10485059;27;20043;-61
2021/01/02 10:39:54;;;;;;;58.35;37.92;;;;;;;;;;10483956;27;20081;-62
2021/01/02 10:44:53;;;;;;;45.35;31.25;;;;;;;;;;10484296;27;20508;-62
2021/01/02 10:49:51;;;;;;;48.28;34.22;;;;;;;;;;10484379;27;20062;-61
2021/01/02 10:54:50;;;;;;;40.97;26.98;;;;;;;;;;10484057;27;20070;-62
2021/01/02 10:59:49;;;;;;;45.03;29.45;;;;;;;;;;10483455;27;20078;-61
2021/01/02 11:04:46;;;;;;;29.98;22.33;;;;;;;;;;10480793;27;20077;-61
2021/01/02 11:09:44;;;;;;;30.02;22.50;;;;;;;;;;10480370;27;20066;-62
2021/01/02 11:14:42;;;;;;;27.25;19.48;;;;;;;;;;10481502;27;20070;-60
2021/01/02 11:19:40;;;;;;;25.20;19.92;;;;;;;;;;10464060;27;20038;-62
2021/01/02 11:24:39;;;;;;;36.63;25.25;;;;;;;;;;10482970;27;20063;-60
2021/01/02 11:29:36;;;;;;;25.42;19.58;;;;;;;;;;10481828;27;20053;-61
2021/01/02 11:34:38;;;;;;;32.40;26.00;;;;;;;;;;10481866;27;20086;-60
2021/01/02 11:39:36;;;;;;;21.67;16.38;;;;;;;;;;10481818;27;20042;-61
2021/01/02 11:44:34;;;;;;;27.05;18.40;;;;;;;;;;10482292;27;20521;-61
2021/01/02 11:49:32;;;;;;;39.78;24.45;;;;;;;;;;10481962;27;20059;-61
2021/01/02 11:54:32;;;;;;;29.20;20.35;;;;;;;;;;10481341;27;20074;-61
2021/01/02 11:59:29;;;;;;;28.65;16.02;;;;;;;;;;10481462;27;20039;-62
2021/01/02 12:04:27;;;;;;;20.20;15.07;;;;;;;;;;10481990;27;20483;-62
2021/01/02 12:09:26;;;;;;;22.70;15.75;;;;;;;;;;10479431;27;20043;-62
2021/01/02 12:14:25;;;;;;;29.20;17.50;;;;;;;;;;10478871;27;20458;-62
2021/01/02 12:19:23;;;;;;;30.25;20.38;;;;;;;;;;10481662;27;20058;-61
2021/01/02 12:24:21;;;;;;;43.15;29.30;;;;;;;;;;10486096;27;20039;-61
2021/01/02 12:29:21;;;;;;;46.58;37.33;;;;;;;;;;10489824;27;20371;-63
2021/01/02 12:34:21;;;;;;;39.60;29.08;;;;;;;;;;10489983;27;20522;-61
2021/01/02 12:39:20;;;;;;;27.83;21.42;;;;;;;;;;10489260;27;20408;-62
2021/01/02 12:44:21;;;;;;;45.33;31.20;;;;;;;;;;10471426;27;20047;-61
2021/01/02 12:49:20;;;;;;;25.38;20.08;;;;;;;;;;10466062;27;20038;-62
2021/01/02 12:54:19;;;;;;;27.25;16.80;;;;;;;;;;10467440;27;20078;-61
2021/01/02 12:59:17;;;;;;;23.73;17.25;;;;;;;;;;10466894;27;20062;-62
2021/01/02 13:04:15;;;;;;;44.10;32.33;;;;;;;;;;10467046;27;20081;-61
2021/01/02 13:09:15;;;;;;;34.42;24.10;;;;;;;;;;10467247;27;20070;-61
2021/01/02 13:14:14;;;;;;;51.33;33.20;;;;;;;;;;10466887;27;20070;-61
2021/01/02 13:19:12;;;;;;;27.08;19.42;;;;;;;;;;10467438;27;20073;-61
2021/01/02 13:24:10;;;;;;;36.60;23.35;;;;;;;;;;10465456;27;20051;-62
2021/01/02 13:29:07;;;;;;;30.20;23.33;;;;;;;;;;10466827;27;20075;-62
2021/01/02 13:34:05;;;;;;;18.67;14.32;;;;;;;;;;10461030;27;20082;-62
2021/01/02 13:39:04;;;;;;;24.55;15.23;;;;;;;;;;10461437;27;20066;-62
2021/01/02 13:44:01;;;;;;;20.85;15.73;;;;;;;;;;10461443;27;20069;-61
2021/01/02 13:48:58;;;;;;;21.05;13.80;;;;;;;;;;10466185;27;20046;-61
2021/01/02 13:53:57;;;;;;;18.40;15.63;;;;;;;;;;10465554;27;20325;-61
2021/01/02 13:58:54;;;;;;;22.70;15.52;;;;;;;;;;10464765;27;20067;-61
2021/01/02 14:03:51;;;;;;;19.85;13.70;;;;;;;;;;10466119;27;20065;-61
2021/01/02 14:08:49;;;;;;;21.38;16.50;;;;;;;;;;10463383;27;20035;-61
2021/01/02 14:13:47;;;;;;;44.97;26.00;;;;;;;;;;10465186;27;20040;-61
2021/01/02 14:19:04;;;;;;;17.25;14.10;;;;;;;;;;10460720;27;20081;-62
2021/01/02 14:24:01;;;;;;;25.60;15.85;;;;;;;;;;10465007;27;20065;-62
2021/01/02 14:28:59;;;;;;;20.65;15.15;;;;;;;;;;10460422;27;20065;-61
2021/01/02 14:33:57;;;;;;;34.13;23.90;;;;;;;;;;10463292;27;20043;-63
2021/01/02 14:38:54;;;;;;;37.63;25.25;;;;;;;;;;10462871;27;20039;-64
2021/01/02 14:43:53;;;;;;;37.20;24.58;;;;;;;;;;10478040;27;20051;-62
2021/01/02 14:48:51;;;;;;;29.02;22.30;;;;;;;;;;10482997;27;20070;-61
2021/01/02 14:53:56;;;;;;;30.10;22.30;;;;;;;;;;10482301;27;20074;-61
2021/01/02 14:58:53;;;;;;;29.25;21.30;;;;;;;;;;10464853;27;20045;-62
2021/01/02 15:03:52;;;;;;;28.25;19.92;;;;;;;;;;10483010;27;20046;-62
2021/01/02 15:08:49;;;;;;;30.10;22.38;;;;;;;;;;10483159;27;20043;-62
2021/01/02 15:13:47;;;;;;;26.52;21.25;;;;;;;;;;10483131;27;20091;-63
2021/01/02 15:18:44;;;;;;;27.38;21.10;;;;;;;;;;10481199;27;20073;-62
2021/01/02 15:23:42;;;;;;;38.83;27.20;;;;;;;;;;10483491;27;20482;-61
2021/01/02 15:28:40;;;;;;;32.00;28.65;;;;;;;;;;10483316;27;20045;-61
2021/01/02 15:33:37;;;;;;;28.70;23.52;;;;;;;;;;10482227;27;20073;-61
2021/01/02 15:38:35;;;;;;;33.47;21.70;;;;;;;;;;10482101;27;20328;-63
2021/01/02 15:43:33;;;;;;;43.22;27.20;;;;;;;;;;10467087;27;20424;-62
2021/01/02 15:48:31;;;;;;;37.13;27.30;;;;;;;;;;10461995;27;20489;-62
2021/01/02 15:53:28;;;;;;;37.60;26.92;;;;;;;;;;10460492;27;20434;-62
2021/01/02 15:58:25;;;;;;;64.28;43.72;;;;;;;;;;10460526;27;20074;-62
2021/01/02 16:03:23;;;;;;;53.72;39.35;;;;;;;;;;10451057;27;20073;-62
2021/01/02 16:08:21;;;;;;;24.77;18.55;;;;;;;;;;10456276;27;20070;-62
2021/01/02 16:13:21;;;;;;;22.55;15.40;;;;;;;;;;10454814;27;20346;-62
2021/01/02 16:18:18;;;;;;;16.20;12.93;;;;;;;;;;10451025;27;20070;-63
2021/01/02 16:23:16;;;;;;;26.80;18.15;;;;;;;;;;10455895;27;20077;-63
2021/01/02 16:28:16;;;;;;;16.38;11.10;;;;;;;;;;10456334;27;20066;-62
2021/01/02 16:33:13;;;;;;;23.90;16.10;;;;;;;;;;10455960;27;20078;-62
2021/01/02 16:38:10;;;;;;;12.13;9.10;;;;;;;;;;10455546;27;20074;-63
2021/01/02 16:43:09;;;;;;;10.85;8.23;;;;;;;;;;10472564;27;20089;-63
2021/01/02 16:48:06;;;;;;;16.35;10.77;;;;;;;;;;10481215;27;20051;-63
2021/01/02 16:53:04;;;;;;;11.95;8.80;;;;;;;;;;10478180;27;20043;-62
2021/01/02 16:58:01;;;;;;;15.10;7.68;;;;;;;;;;10480476;27;20077;-62
2021/01/02 17:02:59;;;;;;;8.02;4.95;;;;;;;;;;10479388;27;20039;-62
2021/01/02 17:07:56;;;;;;;6.75;5.20;;;;;;;;;;10480207;27;20031;-62
2021/01/02 17:12:54;;;;;;;5.72;4.85;;;;;;;;;;10486773;27;20034;-62
2021/01/02 17:17:52;;;;;;;10.18;6.47;;;;;;;;;;10472128;27;20077;-63
2021/01/02 17:22:50;;;;;;;8.98;4.60;;;;;;;;;;10480779;27;20066;-63
2021/01/02 17:27:47;;;;;;;8.68;5.15;;;;;;;;;;10480690;27;20081;-61
2021/01/02 17:32:45;;;;;;;9.95;5.72;;;;;;;;;;10481279;27;20460;-62
2021/01/02 17:37:42;;;;;;;8.50;5.90;;;;;;;;;;10486402;27;20518;-64
2021/01/02 17:42:42;;;;;;;9.20;6.53;;;;;;;;;;10476683;27;20074;-63
2021/01/02 17:47:40;;;;;;;13.15;8.23;;;;;;;;;;10466126;27;20050;-63
2021/01/02 17:52:37;;;;;;;6.50;4.78;;;;;;;;;;10465543;27;20401;-63
2021/01/02 17:57:34;;;;;;;9.85;5.75;;;;;;;;;;10465005;27;20078;-63
2021/01/02 18:02:44;;;;;;;6.57;5.35;;;;;;;;;;10465191;27;20046;-63
2021/01/02 18:07:41;;;;;;;6.78;5.18;;;;;;;;;;10463980;27;20026;-63
2021/01/02 18:12:39;;;;;;;11.02;6.57;;;;;;;;;;10465358;27;20464;-64
2021/01/02 18:17:36;;;;;;;11.45;7.30;;;;;;;;;;10463497;27;20487;-62
2021/01/02 18:22:34;;;;;;;12.52;8.27;;;;;;;;;;10463588;27;20463;-62
2021/01/02 18:27:31;;;;;;;8.77;6.05;;;;;;;;;;10464362;27;20034;-63
2021/01/02 18:32:30;;;;;;;9.50;5.78;;;;;;;;;;10462713;27;20075;-62
2021/01/02 18:37:27;;;;;;;16.77;10.90;;;;;;;;;;10445340;27;20065;-63
2021/01/02 18:42:25;;;;;;;10.30;6.43;;;;;;;;;;10470516;27;20487;-62
2021/01/02 18:47:23;;;;;;;24.70;16.38;;;;;;;;;;10483845;27;20054;-64
2021/01/02 18:52:20;;;;;;;39.80;26.42;;;;;;;;;;10465300;27;20047;-62
2021/01/02 18:57:18;;;;;;;25.23;17.42;;;;;;;;;;10483411;27;20078;-63
2021/01/02 19:02:16;;;;;;;43.90;28.45;;;;;;;;;;10483549;27;20499;-63
2021/01/02 19:07:13;;;;;;;24.42;11.13;;;;;;;;;;10483605;27;20038;-63
2021/01/02 19:12:11;;;;;;;22.60;12.85;;;;;;;;;;10483425;27;20070;-62
2021/01/02 19:17:09;;;;;;;33.95;21.95;;;;;;;;;;10482016;27;20177;-63
2021/01/02 19:22:09;;;;;;;22.55;13.13;;;;;;;;;;10482804;27;20058;-62
2021/01/02 19:27:06;;;;;;;32.25;19.42;;;;;;;;;;10480714;27;20069;-62
2021/01/02 19:32:05;;;;;;;27.63;16.15;;;;;;;;;;10479146;27;20411;-61
2021/01/02 19:37:04;;;;;;;55.00;31.13;;;;;;;;;;10481706;27;20078;-62
2021/01/02 19:42:14;;;;;;;17.30;12.10;;;;;;;;;;10471612;27;20079;-63
2021/01/02 19:47:13;;;;;;;21.25;12.20;;;;;;;;;;10461763;27;20049;-64
2021/01/02 19:52:12;;;;;;;37.58;26.25;;;;;;;;;;10459077;27;20504;-63
2021/01/02 19:57:11;;;;;;;26.92;17.73;;;;;;;;;;10461154;27;20078;-62
2021/01/02 20:02:10;;;;;;;30.52;19.35;;;;;;;;;;10459334;27;20047;-64
2021/01/02 20:07:09;;;;;;;11.48;8.10;;;;;;;;;;10442551;27;20439;-63
2021/01/02 20:12:07;;;;;;;21.48;14.18;;;;;;;;;;10456351;27;20074;-61
2021/01/02 20:17:05;;;;;;;40.42;22.27;;;;;;;;;;10455468;27;20086;-62
2021/01/02 20:22:04;;;;;;;10.68;8.05;;;;;;;;;;10455883;27;20066;-63
2021/01/02 20:27:04;;;;;;;113.47;63.60;;;;;;;;;;10455565;27;20038;-62
2021/01/02 20:32:06;;;;;;;49.67;27.90;;;;;;;;;;10455318;27;20039;-64
2021/01/02 20:37:07;;;;;;;71.45;36.97;;;;;;;;;;10460405;27;20075;-63
2021/01/02 20:42:08;;;;;;;27.92;18.65;;;;;;;;;;10455898;27;20050;-63
2021/01/02 20:47:06;;;;;;;58.40;31.33;;;;;;;;;;10463497;27;20055;-63
2021/01/02 20:52:06;;;;;;;50.92;28.95;;;;;;;;;;10463526;27;20070;-63
2021/01/02 20:57:03;;;;;;;58.15;31.60;;;;;;;;;;10468898;27;20070;-64
2021/01/02 21:02:02;;;;;;;107.75;54.03;;;;;;;;;;10466301;27;20525;-64
2021/01/02 21:07:00;;;;;;;20.73;15.27;;;;;;;;;;10467682;27;20074;-63
2021/01/02 21:12:01;;;;;;;27.83;16.65;;;;;;;;;;10466294;27;20069;-63
2021/01/02 21:17:00;;;;;;;23.45;15.88;;;;;;;;;;10467066;27;20499;-62
2021/01/02 21:22:03;;;;;;;16.27;9.02;;;;;;;;;;10466126;27;20431;-63
2021/01/02 21:27:04;;;;;;;15.65;10.98;;;;;;;;;;10467504;27;20426;-62
2021/01/02 21:32:20;;;;;;;26.20;16.83;;;;;;;;;;10466387;27;20035;-62
2021/01/02 21:37:21;;;;;;;25.17;15.07;;;;;;;;;;10465940;27;20097;-63
2021/01/02 21:42:22;;;;;;;18.70;13.68;;;;;;;;;;10465889;27;20086;-62
2021/01/02 21:47:38;;;;;;;19.70;12.93;;;;;;;;;;10464888;27;20055;-63
2021/01/02 21:52:36;;;;;;;15.52;11.15;;;;;;;;;;10465222;27;20039;-63
2021/01/02 21:57:35;;;;;;;17.33;12.90;;;;;;;;;;10463949;27;20082;-63
2021/01/02 22:02:33;;;;;;;16.05;11.52;;;;;;;;;;10465818;27;20041;-63
2021/01/02 22:07:37;;;;;;;25.83;17.10;;;;;;;;;;10465097;27;20078;-62
2021/01/02 22:12:35;;;;;;;22.13;14.32;;;;;;;;;;10463851;27;20512;-62
2021/01/02 22:17:33;;;;;;;26.45;19.63;;;;;;;;;;10464243;27;20074;-63
2021/01/02 22:22:30;;;;;;;17.50;12.57;;;;;;;;;;10464358;27;20066;-63
2021/01/02 22:27:28;;;;;;;18.23;10.85;;;;;;;;;;10444942;27;20807;-63
2021/01/02 22:32:26;;;;;;;14.48;11.50;;;;;;;;;;10460847;27;20064;-63
2021/01/02 22:37:23;;;;;;;15.15;10.32;;;;;;;;;;10459904;27;20070;-63
2021/01/02 22:42:20;;;;;;;19.52;12.30;;;;;;;;;;10464059;27;20058;-63
2021/01/02 22:47:18;;;;;;;15.15;11.55;;;;;;;;;;10462520;27;20045;-62
2021/01/02 22:52:16;;;;;;;17.10;12.15;;;;;;;;;;10463349;27;20040;-63
2021/01/02 22:57:13;;;;;;;18.27;11.73;;;;;;;;;;10463514;27;20443;-63
2021/01/02 23:02:11;;;;;;;16.33;11.65;;;;;;;;;;10461011;27;20412;-61
2021/01/02 23:07:10;;;;;;;18.58;12.07;;;;;;;;;;10462830;27;20081;-63
2021/01/02 23:12:09;;;;;;;13.85;10.13;;;;;;;;;;10460995;27;20066;-62
2021/01/02 23:17:06;;;;;;;18.35;13.10;;;;;;;;;;10457743;27;20085;-61
2021/01/02 23:22:06;;;;;;;27.70;14.80;;;;;;;;;;10456613;27;20061;-63
2021/01/02 23:27:07;;;;;;;19.17;10.70;;;;;;;;;;10457677;27;20039;-63
2021/01/02 23:32:05;;;;;;;24.92;17.92;;;;;;;;;;10457088;27;20066;-63
2021/01/02 23:37:03;;;;;;;21.65;12.57;;;;;;;;;;10443825;27;20086;-62
2021/01/02 23:42:01;;;;;;;18.85;12.73;;;;;;;;;;10459940;27;20047;-62
2021/01/02 23:46:58;;;;;;;21.95;9.13;;;;;;;;;;10461354;27;20047;-64
2021/01/02 23:51:59;;;;;;;20.13;12.43;;;;;;;;;;10460051;27;20419;-63
2021/01/02 23:56:57;;;;;;;17.02;10.88;;;;;;;;;;10459805;27;20078;-64
